Time,TemperatureF,DewpointF,PressureIn,WindDirection,WindDirectionDegrees,WindSpeedMPH,WindSpeedGustMPH,Humidity,HourlyPrecipIn,Conditions,Clouds,dailyrainin,SoftwareType,DateUTC
2013-01-04 00:01:00,27.0,24.2,30.37,NW,315,1.1,0.0,89,0.00,CLR,,0.00,WeatherDisplay:10.37,2013-01-04 05:01:00,
2013-01-04 00:02:00,27.0,24.2,30.38,NW,315,0.0,0.0,89,0.00,CLR,,0.00,WeatherDisplay:10.37,2013-01-04 05:02:00,
2013-01-04 00:07:00,26.8,24.2,30.37,NW,315,0.0,0.0,90,0.00,CLR,,0.00,WeatherDisplay:10.37,2013-01-04 05:07:00,
2013-01-04 00:12:00,26.8,24.2,30.37,NW,315,0.0,0.0,90,0.00,CLR,,0.00,WeatherDisplay:10.37,2013-01-04 05:12:00,
2013-01-04 00:17:00,26.8,24.2,30.36,North,0,0.0,0.0,90,0.00,CLR,,0.00,WeatherDisplay:10.37,2013-01-04 05:17:00,
2013-01-04 00:22:00,26.6,24.1,30.36,West,270,0.0,0.0,90,0.00,CLR,,0.00,WeatherDisplay:10.37,2013-01-04 05:22:00,
2013-01-04 00:27:00,26.6,24.1,30.36,West,270,0.0,0.0,90,0.00,CLR,,0.00,WeatherDisplay:10.37,2013-01-04 05:27:00,
2013-01-04 00:32:00,26.6,24.1,30.37,North,0,0.0,0.0,90,0.00,CLR,,0.00,WeatherDisplay:10.37,2013-01-04 05:32:00,
2013-01-04 00:37:00,26.6,24.3,30.36,North,0,0.0,0.0,91,0.00,CLR,,0.00,WeatherDisplay:10.37,2013-01-04 05:37:00,
2013-01-04 00:42:00,26.4,24.4,30.36,NW,315,0.0,0.0,92,0.00,CLR,,0.00,WeatherDisplay:10.37,2013-01-04 05:42:00,
2013-01-04 00:47:00,26.4,24.4,30.36,NW,315,0.0,0.0,92,0.00,CLR,,0.00,WeatherDisplay:10.37,2013-01-04 05:47:00,
2013-01-04 00:52:00,26.4,24.4,30.35,NW,315,0.0,0.0,92,0.00,CLR,,0.00,WeatherDisplay:10.37,2013-01-04 05:52:00,
2013-01-04 00:57:00,26.2,24.2,30.36,NW,315,0.0,0.0,92,0.00,CLR,,0.00,WeatherDisplay:10.37,2013-01-04 05:57:00,
2013-01-04 01:02:00,26.2,24.2,30.36,NW,315,0.0,0.0,92,0.00,CLR,,0.00,WeatherDisplay:10.37,2013-01-04 06:02:00,
2013-01-04 01:07:00,26.2,24.2,30.35,NW,315,0.0,0.0,92,0.00,CLR,,0.00,WeatherDisplay:10.37,2013-01-04 06:07:00,
2013-01-04 01:12:00,26.1,24.1,30.36,NW,315,0.0,0.0,92,0.00,CLR,,0.00,WeatherDisplay:10.37,2013-01-04 06:12:00,
2013-01-04 01:17:00,26.1,24.1,30.36,NW,315,0.0,0.0,92,0.00,CLR,,0.00,WeatherDisplay:10.37,2013-01-04 06:17:00,
2013-01-04 01:22:00,26.1,24.1,30.36,SW,225,0.0,0.0,92,0.00,CLR,,0.00,WeatherDisplay:10.37,2013-01-04 06:22:00,
2013-01-04 01:27:00,26.1,24.1,30.35,SW,225,0.0,0.0,92,0.00,CLR,,0.00,WeatherDisplay:10.37,2013-01-04 06:27:00,
2013-01-04 01:32:00,26.1,24.1,30.35,SW,225,0.0,0.0,92,0.00,CLR,,0.00,WeatherDisplay:10.37,2013-01-04 06:32:00,
2013-01-04 01:37:00,26.1,24.1,30.35,SW,225,0.0,0.0,92,0.00,CLR,,0.00,WeatherDisplay:10.37,2013-01-04 06:37:00,
2013-01-04 01:42:00,25.9,23.9,30.35,SW,225,0.0,0.0,92,0.00,CLR,,0.00,WeatherDisplay:10.37,2013-01-04 06:42:00,
2013-01-04 01:47:00,25.9,23.9,30.35,SW,225,0.0,0.0,92,0.00,CLR,,0.00,WeatherDisplay:10.37,2013-01-04 06:47:00,
2013-01-04 01:52:00,25.9,23.9,30.35,SW,225,0.0,0.0,92,0.00,CLR,,0.00,WeatherDisplay:10.37,2013-01-04 06:52:00,
2013-01-04 01:57:00,26.1,24.1,30.34,SW,225,0.0,0.0,92,0.00,CLR,,0.00,WeatherDisplay:10.37,2013-01-04 06:57:00,
2013-01-04 02:02:00,26.1,24.1,30.35,SW,225,0.0,0.0,92,0.00,CLR,,0.00,WeatherDisplay:10.37,2013-01-04 07:02:00,
2013-01-04 02:07:00,26.1,24.1,30.35,SE,135,0.0,0.0,92,0.00,CLR,,0.00,WeatherDisplay:10.37,2013-01-04 07:07:00,
2013-01-04 02:12:00,26.1,24.1,30.36,East,90,0.0,0.0,92,0.00,CLR,,0.00,WeatherDisplay:10.37,2013-01-04 07:12:00,
2013-01-04 02:17:00,26.1,24.1,30.36,East,90,0.0,0.0,92,0.00,CLR,,0.00,WeatherDisplay:10.37,2013-01-04 07:17:00,
2013-01-04 02:22:00,26.1,24.1,30.35,South,180,0.0,0.0,92,0.00,CLR,,0.00,WeatherDisplay:10.37,2013-01-04 07:22:00,
2013-01-04 02:27:00,25.9,23.9,30.36,SE,135,0.0,0.0,92,0.00,CLR,,0.00,WeatherDisplay:10.37,2013-01-04 07:27:00,
2013-01-04 02:32:00,25.7,23.7,30.35,SE,135,0.0,0.0,92,0.00,CLR,,0.00,WeatherDisplay:10.37,2013-01-04 07:32:00,
2013-01-04 02:37:00,25.5,23.5,30.35,SE,135,0.0,0.0,92,0.00,CLR,,0.00,WeatherDisplay:10.37,2013-01-04 07:37:00,
2013-01-04 02:42:00,25.5,23.5,30.35,SE,135,0.0,0.0,92,0.00,CLR,,0.00,WeatherDisplay:10.37,2013-01-04 07:42:00,
2013-01-04 02:47:00,25.3,23.3,30.34,SE,135,0.0,0.0,92,0.00,CLR,,0.00,WeatherDisplay:10.37,2013-01-04 07:47:00,
2013-01-04 02:52:00,25.3,23.3,30.35,SE,135,0.0,0.0,92,0.00,CLR,,0.00,WeatherDisplay:10.37,2013-01-04 07:52:00,
2013-01-04 02:57:00,25.2,23.2,30.34,NW,315,0.0,0.0,92,0.00,CLR,,0.00,WeatherDisplay:10.37,2013-01-04 07:57:00,
2013-01-04 03:02:00,25.2,23.2,30.34,NW,315,0.0,0.0,92,0.00,CLR,,0.00,WeatherDisplay:10.37,2013-01-04 08:02:00,
2013-01-04 03:07:00,25.2,23.2,30.34,South,180,0.0,0.0,92,0.00,CLR,,0.00,WeatherDisplay:10.37,2013-01-04 08:07:00,
2013-01-04 03:12:00,25.2,23.2,30.35,West,270,0.0,0.0,92,0.00,CLR,,0.00,WeatherDisplay:10.37,2013-01-04 08:12:00,
2013-01-04 03:17:00,25.2,23.2,30.34,West,270,0.0,0.0,92,0.00,CLR,,0.00,WeatherDisplay:10.37,2013-01-04 08:17:00,
2013-01-04 03:22:00,25.2,23.4,30.34,North,0,0.0,0.0,93,0.00,CLR,,0.00,WeatherDisplay:10.37,2013-01-04 08:22:00,
2013-01-04 03:27:00,25.3,23.6,30.34,SW,225,0.0,0.0,93,0.00,CLR,,0.00,WeatherDisplay:10.37,2013-01-04 08:27:00,
2013-01-04 03:32:00,25.2,23.4,30.34,SW,225,0.0,0.0,93,0.00,CLR,,0.00,WeatherDisplay:10.37,2013-01-04 08:32:00,
2013-01-04 03:37:00,25.2,23.4,30.34,NW,315,0.0,0.0,93,0.00,CLR,,0.00,WeatherDisplay:10.37,2013-01-04 08:37:00,
2013-01-04 03:42:00,25.2,23.4,30.34,NW,315,0.0,0.0,93,0.00,CLR,,0.00,WeatherDisplay:10.37,2013-01-04 08:42:00,
2013-01-04 03:47:00,25.2,23.4,30.34,NW,315,0.0,0.0,93,0.00,CLR,,0.00,WeatherDisplay:10.37,2013-01-04 08:47:00,
2013-01-04 03:52:00,25.2,23.4,30.34,NW,315,0.0,0.0,93,0.00,CLR,,0.00,WeatherDisplay:10.37,2013-01-04 08:52:00,
2013-01-04 03:57:00,25.3,23.6,30.33,NW,315,0.0,0.0,93,0.00,CLR,,0.00,WeatherDisplay:10.37,2013-01-04 08:57:00,
2013-01-04 04:02:00,25.3,23.6,30.34,NW,315,0.0,0.0,93,0.00,CLR,,0.00,WeatherDisplay:10.37,2013-01-04 09:02:00,
2013-01-04 04:07:00,25.3,23.6,30.34,NW,315,0.0,0.0,93,0.00,CLR,,0.00,WeatherDisplay:10.37,2013-01-04 09:07:00,
2013-01-04 04:12:00,25.5,23.8,30.34,East,90,0.0,0.0,93,0.00,CLR,,0.00,WeatherDisplay:10.37,2013-01-04 09:12:00,
2013-01-04 04:17:00,25.5,23.8,30.34,East,90,0.0,0.0,93,0.00,CLR,,0.00,WeatherDisplay:10.37,2013-01-04 09:17:00,
2013-01-04 04:22:00,25.3,23.6,30.35,East,90,0.0,0.0,93,0.00,CLR,,0.00,WeatherDisplay:10.37,2013-01-04 09:22:00,
2013-01-04 04:27:00,25.3,23.6,30.35,NW,315,0.0,0.0,93,0.00,CLR,,0.00,WeatherDisplay:10.37,2013-01-04 09:27:00,
2013-01-04 04:32:00,25.3,23.6,30.34,NW,315,0.0,0.0,93,0.00,CLR,,0.00,WeatherDisplay:10.37,2013-01-04 09:32:00,
2013-01-04 04:37:00,25.3,23.6,30.35,SW,225,0.0,0.0,93,0.00,CLR,,0.00,WeatherDisplay:10.37,2013-01-04 09:37:00,
2013-01-04 04:42:00,25.2,23.4,30.35,SW,225,0.0,0.0,93,0.00,CLR,,0.00,WeatherDisplay:10.37,2013-01-04 09:42:00,
2013-01-04 04:47:00,25.2,23.4,30.35,SW,225,0.0,0.0,93,0.00,CLR,,0.00,WeatherDisplay:10.37,2013-01-04 09:47:00,
2013-01-04 04:52:00,25.0,23.2,30.35,SE,135,0.0,0.0,93,0.00,CLR,,0.00,WeatherDisplay:10.37,2013-01-04 09:52:00,
2013-01-04 04:57:00,25.0,23.2,30.35,SE,135,0.0,0.0,93,0.00,CLR,,0.00,WeatherDisplay:10.37,2013-01-04 09:57:00,
2013-01-04 05:02:00,25.0,23.2,30.35,SE,135,0.0,0.0,93,0.00,CLR,,0.00,WeatherDisplay:10.37,2013-01-04 10:02:00,
2013-01-04 05:07:00,25.0,23.2,30.36,NE,45,0.0,0.0,93,0.00,CLR,,0.00,WeatherDisplay:10.37,2013-01-04 10:07:00,
2013-01-04 05:12:00,24.8,23.1,30.36,NE,45,0.0,0.0,93,0.00,CLR,,0.00,WeatherDisplay:10.37,2013-01-04 10:12:00,
2013-01-04 05:17:00,24.8,23.1,30.36,NE,45,0.0,0.0,93,0.00,CLR,,0.00,WeatherDisplay:10.37,2013-01-04 10:17:00,
2013-01-04 05:22:00,24.6,23.1,30.36,NE,45,0.0,0.0,94,0.00,CLR,,0.00,WeatherDisplay:10.37,2013-01-04 10:22:00,
2013-01-04 05:27:00,24.6,23.1,30.35,NW,315,0.0,0.0,94,0.00,CLR,,0.00,WeatherDisplay:10.37,2013-01-04 10:27:00,
2013-01-04 05:32:00,24.6,23.1,30.35,NW,315,0.0,0.0,94,0.00,CLR,,0.00,WeatherDisplay:10.37,2013-01-04 10:32:00,
2013-01-04 05:37:00,24.6,23.1,30.35,NW,315,0.0,0.0,94,0.00,CLR,,0.00,WeatherDisplay:10.37,2013-01-04 10:37:00,
2013-01-04 05:42:00,24.4,23.0,30.35,South,180,0.0,0.0,94,0.00,CLR,,0.00,WeatherDisplay:10.37,2013-01-04 10:42:00,
2013-01-04 05:47:00,24.4,23.0,30.35,South,180,0.0,0.0,94,0.00,CLR,,0.00,WeatherDisplay:10.37,2013-01-04 10:47:00,
2013-01-04 05:52:00,24.4,23.0,30.36,South,180,0.0,0.0,94,0.00,CLR,,0.00,WeatherDisplay:10.37,2013-01-04 10:52:00,
2013-01-04 05:57:00,24.4,23.0,30.36,South,180,0.0,0.0,94,0.00,CLR,,0.00,WeatherDisplay:10.37,2013-01-04 10:57:00,
2013-01-04 06:02:00,24.6,23.1,30.36,South,180,0.0,0.0,94,0.00,CLR,,0.00,WeatherDisplay:10.37,2013-01-04 11:02:00,
2013-01-04 06:07:00,24.8,23.1,30.36,East,90,0.0,0.0,93,0.00,CLR,,0.00,WeatherDisplay:10.37,2013-01-04 11:07:00,
2013-01-04 06:12:00,24.8,23.1,30.36,East,90,0.0,0.0,93,0.00,CLR,,0.00,WeatherDisplay:10.37,2013-01-04 11:12:00,
2013-01-04 06:17:00,24.8,23.1,30.36,East,90,0.0,0.0,93,0.00,CLR,,0.00,WeatherDisplay:10.37,2013-01-04 11:17:00,
2013-01-04 06:22:00,24.6,23.1,30.37,NW,315,0.0,0.0,94,0.00,CLR,,0.00,WeatherDisplay:10.37,2013-01-04 11:22:00,
2013-01-04 06:27:00,24.6,23.1,30.36,NW,315,0.0,0.0,94,0.00,CLR,,0.00,WeatherDisplay:10.37,2013-01-04 11:27:00,
2013-01-04 06:32:00,24.4,23.0,30.37,NW,315,0.0,0.0,94,0.00,CLR,,0.00,WeatherDisplay:10.37,2013-01-04 11:32:00,
2013-01-04 06:37:00,24.4,23.0,30.37,NW,315,0.0,0.0,94,0.00,CLR,,0.00,WeatherDisplay:10.37,2013-01-04 11:37:00,
2013-01-04 06:42:00,24.4,23.0,30.38,NW,315,0.0,0.0,94,0.00,CLR,,0.00,WeatherDisplay:10.37,2013-01-04 11:42:00,
2013-01-04 06:47:00,24.4,23.0,30.38,East,90,0.0,0.0,94,0.00,CLR,,0.00,WeatherDisplay:10.37,2013-01-04 11:47:00,
2013-01-04 06:52:00,24.4,23.0,30.38,East,90,0.0,0.0,94,0.00,CLR,,0.00,WeatherDisplay:10.37,2013-01-04 11:52:00,
2013-01-04 06:57:00,24.3,22.8,30.38,East,90,0.0,0.0,94,0.00,CLR,,0.00,WeatherDisplay:10.37,2013-01-04 11:57:00,
2013-01-04 07:02:00,24.3,22.8,30.39,East,90,0.0,0.0,94,0.00,CLR,,0.00,WeatherDisplay:10.37,2013-01-04 12:02:00,
2013-01-04 07:07:00,24.1,22.6,30.39,East,90,0.0,0.0,94,0.00,CLR,,0.00,WeatherDisplay:10.37,2013-01-04 12:07:00,
2013-01-04 07:12:00,24.1,22.6,30.39,East,90,0.0,0.0,94,0.00,CLR,,0.00,WeatherDisplay:10.37,2013-01-04 12:12:00,
2013-01-04 07:17:00,24.1,22.6,30.39,East,90,0.0,0.0,94,0.00,CLR,,0.00,WeatherDisplay:10.37,2013-01-04 12:17:00,
2013-01-04 07:22:00,24.1,22.6,30.40,East,90,0.0,0.0,94,0.00,CLR,,0.00,WeatherDisplay:10.37,2013-01-04 12:22:00,
2013-01-04 07:27:00,24.1,22.6,30.40,East,90,0.0,0.0,94,0.00,CLR,,0.00,WeatherDisplay:10.37,2013-01-04 12:27:00,
2013-01-04 07:33:00,24.1,22.6,30.40,East,90,0.0,0.0,94,0.00,CLR,,0.00,WeatherDisplay:10.37,2013-01-04 12:33:00,
2013-01-04 07:38:00,23.9,22.4,30.40,East,90,0.0,0.0,94,0.00,CLR,,0.00,WeatherDisplay:10.37,2013-01-04 12:38:00,
2013-01-04 07:43:00,23.9,22.4,30.40,East,90,0.0,0.0,94,0.00,CLR,,0.00,WeatherDisplay:10.37,2013-01-04 12:43:00,
2013-01-04 07:48:00,23.9,22.4,30.40,East,90,0.0,0.0,94,0.00,CLR,,0.00,WeatherDisplay:10.37,2013-01-04 12:48:00,
2013-01-04 07:53:00,23.9,22.4,30.40,East,90,0.0,0.0,94,0.00,CLR,,0.00,WeatherDisplay:10.37,2013-01-04 12:53:00,
2013-01-04 07:58:00,24.1,22.6,30.41,East,90,0.0,0.0,94,0.00,CLR,,0.00,WeatherDisplay:10.37,2013-01-04 12:58:00,
2013-01-04 08:03:00,23.9,22.4,30.41,East,90,0.0,0.0,94,0.00,CLR,,0.00,WeatherDisplay:10.37,2013-01-04 13:03:00,
2013-01-04 08:08:00,23.9,22.4,30.41,East,90,0.0,0.0,94,0.00,CLR,,0.00,WeatherDisplay:10.37,2013-01-04 13:08:00,
2013-01-04 08:13:00,23.9,22.4,30.41,East,90,0.0,0.0,94,0.00,CLR,,0.00,WeatherDisplay:10.37,2013-01-04 13:13:00,
2013-01-04 08:18:00,23.9,22.4,30.40,East,90,0.0,0.0,94,0.00,CLR,,0.00,WeatherDisplay:10.37,2013-01-04 13:18:00,
2013-01-04 08:23:00,24.1,22.6,30.40,East,90,0.0,0.0,94,0.00,CLR,,0.00,WeatherDisplay:10.37,2013-01-04 13:23:00,
2013-01-04 08:28:00,24.3,23.0,30.41,East,90,0.0,0.0,95,0.00,CLR,,0.00,WeatherDisplay:10.37,2013-01-04 13:28:00,
2013-01-04 08:33:00,24.4,23.2,30.42,East,90,0.0,0.0,95,0.00,CLR,,0.00,WeatherDisplay:10.37,2013-01-04 13:33:00,
2013-01-04 08:38:00,24.8,23.3,30.42,East,90,0.0,0.0,94,0.00,CLR,,0.00,WeatherDisplay:10.37,2013-01-04 13:38:00,
2013-01-04 08:43:00,25.2,23.7,30.41,East,90,0.0,0.0,94,0.00,CLR,,0.00,WeatherDisplay:10.37,2013-01-04 13:43:00,
2013-01-04 08:48:00,25.3,23.9,30.41,East,90,0.0,0.0,94,0.00,CLR,,0.00,WeatherDisplay:10.37,2013-01-04 13:48:00,
2013-01-04 08:53:00,25.7,24.2,30.41,East,90,0.0,0.0,94,0.00,CLR,,0.00,WeatherDisplay:10.37,2013-01-04 13:53:00,
2013-01-04 08:58:00,26.2,25.0,30.42,East,90,0.0,0.0,95,0.00,CLR,,0.00,WeatherDisplay:10.37,2013-01-04 13:58:00,
2013-01-04 09:03:00,26.8,25.3,30.42,East,90,0.0,0.0,94,0.00,CLR,,0.00,WeatherDisplay:10.37,2013-01-04 14:03:00,
2013-01-04 09:08:00,27.1,25.6,30.42,East,90,0.0,0.0,94,0.00,CLR,,0.00,WeatherDisplay:10.37,2013-01-04 14:08:00,
2013-01-04 09:13:00,27.9,26.4,30.42,East,90,0.0,0.0,94,0.00,CLR,,0.00,WeatherDisplay:10.37,2013-01-04 14:13:00,
2013-01-04 09:18:00,28.2,26.7,30.42,East,90,0.0,0.0,94,0.00,CLR,,0.00,WeatherDisplay:10.37,2013-01-04 14:18:00,
2013-01-04 09:23:00,29.1,28.9,30.42,East,90,0.0,0.0,99,0.00,CLR,,0.00,WeatherDisplay:10.37,2013-01-04 14:23:00,
2013-01-04 09:28:00,29.8,29.6,30.42,East,90,0.0,0.0,99,0.00,CLR,,0.00,WeatherDisplay:10.37,2013-01-04 14:28:00,
2013-01-04 09:33:00,30.4,29.9,30.42,East,90,4.6,4.6,98,0.00,CLR,,0.00,WeatherDisplay:10.37,2013-01-04 14:33:00,
2013-01-04 09:38:00,31.5,31.0,30.42,East,90,2.3,2.3,98,0.00,CLR,,0.00,WeatherDisplay:10.37,2013-01-04 14:38:00,
2013-01-04 09:43:00,32.2,31.2,30.43,East,90,5.8,5.8,96,0.00,CLR,,0.00,WeatherDisplay:10.37,2013-01-04 14:43:00,
2013-01-04 09:48:00,32.7,31.4,30.43,NE,45,11.5,11.5,95,0.00,CLR,,0.00,WeatherDisplay:10.37,2013-01-04 14:48:00,
2013-01-04 09:53:00,33.6,31.8,30.43,North,0,5.8,5.8,93,0.00,CLR,,0.00,WeatherDisplay:10.37,2013-01-04 14:53:00,
2013-01-04 09:58:00,33.8,30.3,30.43,NE,45,5.8,5.8,87,0.00,CLR,,0.00,WeatherDisplay:10.37,2013-01-04 14:58:00,
2013-01-04 10:03:00,34.0,29.7,30.43,North,0,5.8,5.8,84,0.00,CLR,,0.00,WeatherDisplay:10.37,2013-01-04 15:03:00,
2013-01-04 10:08:00,34.2,29.5,30.43,North,0,2.3,0.0,83,0.00,CLR,,0.00,WeatherDisplay:10.37,2013-01-04 15:08:00,
2013-01-04 10:13:00,34.7,29.8,30.43,North,0,5.8,5.8,82,0.00,CLR,,0.00,WeatherDisplay:10.37,2013-01-04 15:13:00,
2013-01-04 10:18:00,35.2,29.4,30.44,North,0,5.8,5.8,79,0.00,CLR,,0.00,WeatherDisplay:10.37,2013-01-04 15:18:00,
2013-01-04 10:23:00,35.6,28.8,30.44,SE,135,4.6,0.0,76,0.00,CLR,,0.00,WeatherDisplay:10.37,2013-01-04 15:23:00,
2013-01-04 10:28:00,35.8,28.3,30.44,East,90,6.9,6.9,74,0.00,CLR,,0.00,WeatherDisplay:10.37,2013-01-04 15:28:00,
2013-01-04 10:33:00,36.0,28.1,30.44,NE,45,5.8,5.8,73,0.00,CLR,,0.00,WeatherDisplay:10.37,2013-01-04 15:33:00,
2013-01-04 10:38:00,36.5,28.3,30.44,NE,45,5.8,5.8,72,0.00,CLR,,0.00,WeatherDisplay:10.37,2013-01-04 15:38:00,
2013-01-04 10:43:00,36.9,28.3,30.44,North,0,6.9,6.9,71,0.00,CLR,,0.00,WeatherDisplay:10.37,2013-01-04 15:43:00,
2013-01-04 10:48:00,37.2,28.0,30.44,North,0,4.6,4.6,69,0.00,CLR,,0.00,WeatherDisplay:10.37,2013-01-04 15:48:00,
2013-01-04 10:53:00,37.8,29.5,30.44,East,90,5.8,5.8,72,0.00,CLR,,0.00,WeatherDisplay:10.37,2013-01-04 15:53:00,
2013-01-04 10:58:00,38.1,29.2,30.44,North,0,6.9,6.9,70,0.00,CLR,,0.00,WeatherDisplay:10.37,2013-01-04 15:58:00,
2013-01-04 11:03:00,38.5,29.9,30.43,NE,45,6.9,6.9,71,0.00,CLR,,0.00,WeatherDisplay:10.37,2013-01-04 16:03:00,
2013-01-04 11:08:00,39.2,30.2,30.43,SW,225,4.6,4.6,70,0.00,CLR,,0.00,WeatherDisplay:10.37,2013-01-04 16:08:00,
2013-01-04 11:13:00,40.1,30.7,30.44,East,90,6.9,6.9,69,0.00,CLR,,0.00,WeatherDisplay:10.37,2013-01-04 16:13:00,
2013-01-04 11:18:00,40.5,30.7,30.43,NW,315,5.8,5.8,68,0.00,CLR,,0.00,WeatherDisplay:10.37,2013-01-04 16:18:00,
2013-01-04 11:23:00,40.8,30.7,30.43,North,0,5.8,5.8,67,0.00,CLR,,0.00,WeatherDisplay:10.37,2013-01-04 16:23:00,
2013-01-04 11:28:00,41.5,30.6,30.43,North,0,10.4,10.4,65,0.00,CLR,,0.00,WeatherDisplay:10.37,2013-01-04 16:28:00,
2013-01-04 11:33:00,42.1,31.2,30.43,NE,45,5.8,5.8,65,0.00,CLR,,0.00,WeatherDisplay:10.37,2013-01-04 16:33:00,
2013-01-04 11:38:00,42.8,31.1,30.43,North,0,6.9,6.9,63,0.00,CLR,,0.00,WeatherDisplay:10.37,2013-01-04 16:38:00,
2013-01-04 11:43:00,43.3,31.2,30.42,NE,45,10.4,10.4,62,0.00,CLR,,0.00,WeatherDisplay:10.37,2013-01-04 16:43:00,
2013-01-04 11:48:00,43.0,29.6,30.43,North,0,8.1,8.1,59,0.00,CLR,,0.00,WeatherDisplay:10.37,2013-01-04 16:48:00,
2013-01-04 11:53:00,43.0,29.6,30.43,North,0,8.4,8.4,59,0.00,CLR,,0.00,WeatherDisplay:10.37,2013-01-04 16:53:00,
2013-01-04 11:58:00,43.3,30.4,30.42,East,90,10.4,10.4,60,0.00,CLR,,0.00,WeatherDisplay:10.37,2013-01-04 16:58:00,
2013-01-04 12:03:00,43.5,30.1,30.42,North,0,8.1,8.1,59,0.00,CLR,,0.00,WeatherDisplay:10.37,2013-01-04 17:03:00,
2013-01-04 12:08:00,43.9,30.5,30.42,SW,225,5.8,5.8,59,0.00,CLR,,0.00,WeatherDisplay:10.37,2013-01-04 17:08:00,
2013-01-04 12:13:00,44.4,31.4,30.41,NW,315,6.9,6.9,60,0.00,CLR,,0.00,WeatherDisplay:10.37,2013-01-04 17:13:00,
2013-01-04 12:18:00,44.8,30.9,30.41,North,0,11.4,11.4,58,0.00,CLR,,0.00,WeatherDisplay:10.37,2013-01-04 17:18:00,
2013-01-04 12:23:00,44.8,30.5,30.41,NE,45,6.9,6.9,57,0.00,CLR,,0.00,WeatherDisplay:10.37,2013-01-04 17:23:00,
2013-01-04 12:28:00,44.1,29.4,30.41,NE,45,6.9,6.9,56,0.00,CLR,,0.00,WeatherDisplay:10.37,2013-01-04 17:28:00,
2013-01-04 12:33:00,44.1,30.2,30.40,SE,135,2.3,2.3,58,0.00,CLR,,0.00,WeatherDisplay:10.37,2013-01-04 17:33:00,
2013-01-04 12:38:00,44.8,30.9,30.41,NE,45,8.1,8.1,58,0.00,CLR,,0.00,WeatherDisplay:10.37,2013-01-04 17:38:00,
2013-01-04 12:43:00,44.2,30.0,30.40,NW,315,6.9,6.9,57,0.00,CLR,,0.00,WeatherDisplay:10.37,2013-01-04 17:43:00,
2013-01-04 12:48:00,44.2,30.4,30.40,SE,135,5.8,5.8,58,0.00,CLR,,0.00,WeatherDisplay:10.37,2013-01-04 17:48:00,
2013-01-04 12:53:00,44.4,30.6,30.40,NE,45,5.7,5.7,58,0.00,CLR,,0.00,WeatherDisplay:10.37,2013-01-04 17:53:00,
2013-01-04 12:58:00,44.2,30.4,30.39,SE,135,5.8,5.8,58,0.00,CLR,,0.00,WeatherDisplay:10.37,2013-01-04 17:58:00,
2013-01-04 13:03:00,44.2,30.4,30.39,NNW,338,6.9,6.9,58,0.00,CLR,,0.00,WeatherDisplay:10.37,2013-01-04 18:03:00,
2013-01-04 13:08:00,44.2,30.4,30.39,North,0,8.1,8.1,58,0.00,CLR,,0.00,WeatherDisplay:10.37,2013-01-04 18:08:00,
2013-01-04 13:13:00,44.2,30.0,30.39,SE,135,8.1,8.1,57,0.00,CLR,,0.00,WeatherDisplay:10.37,2013-01-04 18:13:00,
2013-01-04 13:18:00,44.4,31.0,30.38,North,0,8.1,8.1,59,0.00,CLR,,0.00,WeatherDisplay:10.37,2013-01-04 18:18:00,
2013-01-04 13:23:00,44.8,30.0,30.38,NE,45,6.9,6.9,56,0.00,CLR,,0.00,WeatherDisplay:10.37,2013-01-04 18:23:00,
2013-01-04 13:28:00,44.4,29.7,30.37,South,180,8.1,8.1,56,0.00,CLR,,0.00,WeatherDisplay:10.37,2013-01-04 18:28:00,
2013-01-04 13:33:00,44.6,29.9,30.37,North,0,6.9,6.9,56,0.00,CLR,,0.00,WeatherDisplay:10.37,2013-01-04 18:33:00,
2013-01-04 13:38:00,45.0,30.6,30.37,NE,45,5.8,5.8,57,0.00,CLR,,0.00,WeatherDisplay:10.37,2013-01-04 18:38:00,
2013-01-04 13:43:00,45.5,30.7,30.37,NW,315,6.9,6.9,56,0.00,CLR,,0.00,WeatherDisplay:10.37,2013-01-04 18:43:00,
2013-01-04 13:48:00,46.0,31.2,30.37,SW,225,4.6,4.6,56,0.00,CLR,,0.00,WeatherDisplay:10.37,2013-01-04 18:48:00,
2013-01-04 13:53:00,46.4,31.5,30.36,SE,135,4.6,4.6,56,0.00,CLR,,0.00,WeatherDisplay:10.37,2013-01-04 18:53:00,
2013-01-04 13:58:00,46.4,31.1,30.36,NE,45,8.1,0.0,55,0.00,CLR,,0.00,WeatherDisplay:10.37,2013-01-04 18:58:00,
2013-01-04 14:03:00,46.0,30.3,30.36,NW,315,6.9,6.9,54,0.00,CLR,,0.00,WeatherDisplay:10.37,2013-01-04 19:03:00,
2013-01-04 14:08:00,46.6,31.3,30.37,West,270,6.9,6.9,55,0.00,CLR,,0.00,WeatherDisplay:10.37,2013-01-04 19:08:00,
2013-01-04 14:13:00,46.8,31.4,30.36,West,270,6.9,6.9,55,0.00,CLR,,0.00,WeatherDisplay:10.37,2013-01-04 19:13:00,
2013-01-04 14:18:00,46.9,31.6,30.36,West,270,5.8,5.8,55,0.00,CLR,,0.00,WeatherDisplay:10.37,2013-01-04 19:18:00,
2013-01-04 14:23:00,46.6,31.3,30.36,NE,45,8.1,8.1,55,0.00,CLR,,0.00,WeatherDisplay:10.37,2013-01-04 19:23:00,
2013-01-04 14:28:00,46.4,31.1,30.35,SW,225,4.6,4.6,55,0.00,CLR,,0.00,WeatherDisplay:10.37,2013-01-04 19:28:00,
2013-01-04 14:33:00,46.6,31.3,30.35,NE,45,11.5,11.5,55,0.00,CLR,,0.00,WeatherDisplay:10.37,2013-01-04 19:33:00,
2013-01-04 14:38:00,46.8,30.5,30.35,SE,135,11.5,11.5,53,0.00,CLR,,0.00,WeatherDisplay:10.37,2013-01-04 19:38:00,
2013-01-04 14:43:00,46.8,31.4,30.36,NW,315,6.9,6.9,55,0.00,CLR,,0.00,WeatherDisplay:10.37,2013-01-04 19:43:00,
2013-01-04 14:48:00,47.3,31.9,30.36,NW,315,4.6,4.6,55,0.00,CLR,,0.00,WeatherDisplay:10.37,2013-01-04 19:48:00,
2013-01-04 14:53:00,47.1,30.9,30.35,SW,225,11.5,11.5,53,0.00,CLR,,0.00,WeatherDisplay:10.37,2013-01-04 19:53:00,
2013-01-04 14:58:00,46.9,30.7,30.35,NW,315,6.9,6.9,53,0.00,CLR,,0.00,WeatherDisplay:10.37,2013-01-04 19:58:00,
2013-01-04 15:03:00,46.9,31.6,30.35,NE,45,8.1,8.1,55,0.00,CLR,,0.00,WeatherDisplay:10.37,2013-01-04 20:03:00,
2013-01-04 15:08:00,47.1,31.8,30.35,NE,45,8.1,8.1,55,0.00,CLR,,0.00,WeatherDisplay:10.37,2013-01-04 20:08:00,
2013-01-04 15:13:00,47.1,30.9,30.34,North,0,6.9,6.9,53,0.00,CLR,,0.00,WeatherDisplay:10.37,2013-01-04 20:13:00,
2013-01-04 15:18:00,47.7,31.8,30.34,East,90,11.5,11.5,54,0.00,CLR,,0.00,WeatherDisplay:10.37,2013-01-04 20:18:00,
2013-01-04 15:23:00,47.5,31.2,30.35,NNW,338,6.9,6.9,53,0.00,CLR,,0.00,WeatherDisplay:10.37,2013-01-04 20:23:00,
2013-01-04 15:28:00,47.5,31.2,30.35,North,0,4.6,4.6,53,0.00,CLR,,0.00,WeatherDisplay:10.37,2013-01-04 20:28:00,
2013-01-04 15:33:00,47.8,32.0,30.35,NW,315,4.6,4.6,54,0.00,CLR,,0.00,WeatherDisplay:10.37,2013-01-04 20:33:00,
2013-01-04 15:38:00,48.6,32.2,30.35,North,0,5.8,5.8,53,0.00,CLR,,0.00,WeatherDisplay:10.37,2013-01-04 20:38:00,
2013-01-04 15:43:00,48.9,32.0,30.35,NW,315,4.6,4.6,52,0.00,CLR,,0.00,WeatherDisplay:10.37,2013-01-04 20:43:00,
2013-01-04 15:48:00,48.7,30.9,30.35,North,0,6.9,6.9,50,0.00,CLR,,0.00,WeatherDisplay:10.37,2013-01-04 20:48:00,
2013-01-04 15:53:00,48.6,30.7,30.35,NE,45,4.6,4.6,50,0.00,CLR,,0.00,WeatherDisplay:10.37,2013-01-04 20:53:00,
2013-01-04 15:58:00,48.7,31.4,30.35,NE,45,13.8,13.8,51,0.00,CLR,,0.00,WeatherDisplay:10.37,2013-01-04 20:58:00,
2013-01-04 16:03:00,48.4,30.6,30.36,East,90,6.9,6.9,50,0.00,CLR,,0.00,WeatherDisplay:10.37,2013-01-04 21:03:00,
2013-01-04 16:08:00,48.2,30.4,30.36,NE,45,10.4,10.4,50,0.00,CLR,,0.00,WeatherDisplay:10.37,2013-01-04 21:08:00,
2013-01-04 16:13:00,47.7,29.9,30.36,North,0,8.1,8.1,50,0.00,CLR,,0.00,WeatherDisplay:10.37,2013-01-04 21:13:00,
2013-01-04 16:18:00,47.5,29.7,30.35,SSW,202,7.0,7.0,50,0.00,CLR,,0.00,WeatherDisplay:10.37,2013-01-04 21:18:00,
2013-01-04 16:23:00,47.1,30.4,30.36,NE,45,10.4,10.4,52,0.00,CLR,,0.00,WeatherDisplay:10.37,2013-01-04 21:23:00,
2013-01-04 16:28:00,46.8,30.5,30.36,North,0,4.6,4.6,53,0.00,CLR,,0.00,WeatherDisplay:10.37,2013-01-04 21:28:00,
2013-01-04 16:33:00,46.4,30.2,30.35,NW,315,5.8,5.8,53,0.00,CLR,,0.00,WeatherDisplay:10.37,2013-01-04 21:33:00,
2013-01-04 16:38:00,46.0,28.9,30.36,NE,45,5.8,5.8,51,0.00,CLR,,0.00,WeatherDisplay:10.37,2013-01-04 21:38:00,
2013-01-04 16:43:00,45.9,29.2,30.35,North,0,4.6,4.6,52,0.00,CLR,,0.00,WeatherDisplay:10.37,2013-01-04 21:43:00,
2013-01-04 16:48:00,45.7,29.5,30.35,NW,315,5.8,5.8,53,0.00,CLR,,0.00,WeatherDisplay:10.37,2013-01-04 21:48:00,
2013-01-04 16:53:00,45.1,29.0,30.36,North,0,5.8,5.8,53,0.00,CLR,,0.00,WeatherDisplay:10.37,2013-01-04 21:53:00,
2013-01-04 16:58:00,45.0,28.8,30.36,North,0,4.6,4.6,53,0.00,CLR,,0.00,WeatherDisplay:10.37,2013-01-04 21:58:00,
2013-01-04 17:03:00,44.6,28.5,30.35,NW,315,4.6,4.6,53,0.00,CLR,,0.00,WeatherDisplay:10.37,2013-01-04 22:03:00,
2013-01-04 17:08:00,44.1,28.9,30.36,North,0,2.3,0.0,55,0.00,CLR,,0.00,WeatherDisplay:10.37,2013-01-04 22:08:00,
2013-01-04 17:13:00,43.5,28.8,30.36,SW,225,4.6,0.0,56,0.00,CLR,,0.00,WeatherDisplay:10.37,2013-01-04 22:13:00,
2013-01-04 17:18:00,43.0,29.2,30.36,NW,315,1.3,0.0,58,0.00,CLR,,0.00,WeatherDisplay:10.37,2013-01-04 22:18:00,
2013-01-04 17:23:00,42.4,29.1,30.36,West,270,2.3,2.3,59,0.00,CLR,,0.00,WeatherDisplay:10.37,2013-01-04 22:23:00,
2013-01-04 17:28:00,41.9,29.4,30.36,NW,315,1.1,0.0,61,0.00,CLR,,0.00,WeatherDisplay:10.37,2013-01-04 22:28:00,
2013-01-04 17:33:00,41.4,28.9,30.37,North,0,1.1,0.0,61,0.00,CLR,,0.00,WeatherDisplay:10.37,2013-01-04 22:33:00,
2013-01-04 17:38:00,40.8,28.8,30.36,NW,315,2.3,0.0,62,0.00,CLR,,0.00,WeatherDisplay:10.37,2013-01-04 22:38:00,
2013-01-04 17:43:00,40.1,28.5,30.36,North,0,2.7,0.0,63,0.00,CLR,,0.00,WeatherDisplay:10.37,2013-01-04 22:43:00,
2013-01-04 17:48:00,39.7,27.8,30.37,NNE,22,1.1,0.0,62,0.00,CLR,,0.00,WeatherDisplay:10.37,2013-01-04 22:48:00,
2013-01-04 17:53:00,39.2,27.3,30.37,West,270,0.0,0.0,62,0.00,CLR,,0.00,WeatherDisplay:10.37,2013-01-04 22:53:00,
2013-01-04 17:58:00,38.7,27.9,30.37,West,270,0.0,0.0,65,0.00,CLR,,0.00,WeatherDisplay:10.37,2013-01-04 22:58:00,
2013-01-04 18:03:00,38.1,27.8,30.37,West,270,0.0,0.0,66,0.00,CLR,,0.00,WeatherDisplay:10.37,2013-01-04 23:03:00,
2013-01-04 18:08:00,37.4,27.4,30.37,NW,315,1.1,0.0,67,0.00,CLR,,0.00,WeatherDisplay:10.37,2013-01-04 23:08:00,
2013-01-04 18:13:00,36.7,25.6,30.38,North,0,2.3,0.0,64,0.00,CLR,,0.00,WeatherDisplay:10.37,2013-01-04 23:13:00,
2013-01-04 18:18:00,36.1,25.1,30.38,North,0,2.3,2.3,64,0.00,CLR,,0.00,WeatherDisplay:10.37,2013-01-04 23:18:00,
2013-01-04 18:23:00,36.0,25.3,30.38,NE,45,2.3,0.0,65,0.00,CLR,,0.00,WeatherDisplay:10.37,2013-01-04 23:23:00,
2013-01-04 18:28:00,36.0,25.3,30.38,NW,315,0.0,0.0,65,0.00,CLR,,0.00,WeatherDisplay:10.37,2013-01-04 23:28:00,
2013-01-04 18:33:00,36.3,25.7,30.38,North,0,2.3,2.3,65,0.00,CLR,,0.00,WeatherDisplay:10.37,2013-01-04 23:33:00,
2013-01-04 18:38:00,36.3,26.0,30.38,North,0,4.6,4.6,66,0.00,CLR,,0.00,WeatherDisplay:10.37,2013-01-04 23:38:00,
2013-01-04 18:43:00,36.0,25.7,30.38,North,0,2.3,0.0,66,0.00,CLR,,0.00,WeatherDisplay:10.37,2013-01-04 23:43:00,
2013-01-04 18:48:00,36.0,25.7,30.39,NW,315,0.0,0.0,66,0.00,CLR,,0.00,WeatherDisplay:10.37,2013-01-04 23:48:00,
2013-01-04 18:53:00,35.6,25.4,30.39,NW,315,0.0,0.0,66,0.00,CLR,,0.00,WeatherDisplay:10.37,2013-01-04 23:53:00,
2013-01-04 18:58:00,35.4,25.9,30.39,SW,225,2.3,2.3,68,0.00,CLR,,0.00,WeatherDisplay:10.37,2013-01-04 23:58:00,
2013-01-04 19:03:00,35.2,26.1,30.39,NE,45,2.3,2.3,69,0.00,CLR,,0.00,WeatherDisplay:10.37,2013-01-05 00:03:00,
2013-01-04 19:08:00,34.7,25.6,30.39,NW,315,1.1,0.0,69,0.00,CLR,,0.00,WeatherDisplay:10.37,2013-01-05 00:08:00,
2013-01-04 19:13:00,34.3,25.2,30.39,North,0,0.0,0.0,69,0.00,CLR,,0.00,WeatherDisplay:10.37,2013-01-05 00:13:00,
2013-01-04 19:18:00,34.2,25.4,30.39,North,0,0.0,0.0,70,0.00,CLR,,0.00,WeatherDisplay:10.37,2013-01-05 00:18:00,
2013-01-04 19:23:00,34.0,25.2,30.39,SW,225,0.0,0.0,70,0.00,CLR,,0.00,WeatherDisplay:10.37,2013-01-05 00:23:00,
2013-01-04 19:28:00,33.8,25.4,30.40,West,270,0.0,0.0,71,0.00,CLR,,0.00,WeatherDisplay:10.37,2013-01-05 00:28:00,
2013-01-04 19:33:00,33.4,25.7,30.40,North,0,2.3,2.3,73,0.00,CLR,,0.00,WeatherDisplay:10.37,2013-01-05 00:33:00,
2013-01-04 19:38:00,33.3,25.5,30.40,WNW,292,0.0,0.0,73,0.00,CLR,,0.00,WeatherDisplay:10.37,2013-01-05 00:38:00,
2013-01-04 19:43:00,33.1,25.4,30.40,West,270,1.1,0.0,73,0.00,CLR,,0.00,WeatherDisplay:10.37,2013-01-05 00:43:00,
2013-01-04 19:48:00,32.9,25.2,30.39,North,0,0.0,0.0,73,0.00,CLR,,0.00,WeatherDisplay:10.37,2013-01-05 00:48:00,
2013-01-04 19:53:00,32.9,25.5,30.39,NW,315,0.0,0.0,74,0.00,CLR,,0.00,WeatherDisplay:10.37,2013-01-05 00:53:00,
2013-01-04 19:58:00,32.5,25.2,30.40,NW,315,0.0,0.0,74,0.00,CLR,,0.00,WeatherDisplay:10.37,2013-01-05 00:58:00,
2013-01-04 20:03:00,32.4,25.0,30.40,NW,315,0.0,0.0,74,0.00,CLR,,0.00,WeatherDisplay:10.37,2013-01-05 01:03:00,
2013-01-04 20:08:00,32.2,25.1,30.40,SW,225,2.3,2.7,75,0.00,CLR,,0.00,WeatherDisplay:10.37,2013-01-05 01:08:00,
2013-01-04 20:13:00,32.2,25.1,30.40,NW,315,0.0,0.0,75,0.00,CLR,,0.00,WeatherDisplay:10.37,2013-01-05 01:13:00,
2013-01-04 20:18:00,32.2,25.1,30.40,NW,315,0.0,0.0,75,0.00,CLR,,0.00,WeatherDisplay:10.37,2013-01-05 01:18:00,
2013-01-04 20:23:00,32.2,25.1,30.40,NW,315,0.0,0.0,75,0.00,CLR,,0.00,WeatherDisplay:10.37,2013-01-05 01:23:00,
2013-01-04 20:28:00,32.0,25.3,30.40,West,270,0.0,0.0,76,0.00,CLR,,0.00,WeatherDisplay:10.37,2013-01-05 01:28:00,
2013-01-04 20:33:00,31.5,25.4,30.40,NW,315,1.1,0.0,78,0.00,CLR,,0.00,WeatherDisplay:10.37,2013-01-05 01:33:00,
2013-01-04 20:38:00,30.9,25.2,30.40,North,0,0.0,0.0,79,0.00,CLR,,0.00,WeatherDisplay:10.37,2013-01-05 01:38:00,
2013-01-04 20:43:00,30.6,24.8,30.39,North,0,0.0,0.0,79,0.00,CLR,,0.00,WeatherDisplay:10.37,2013-01-05 01:43:00,
2013-01-04 20:48:00,30.2,24.8,30.39,West,270,0.0,0.0,80,0.00,CLR,,0.00,WeatherDisplay:10.37,2013-01-05 01:48:00,
2013-01-04 20:53:00,29.8,24.7,30.39,West,270,0.0,0.0,81,0.00,CLR,,0.00,WeatherDisplay:10.37,2013-01-05 01:53:00,
2013-01-04 20:58:00,29.5,24.4,30.39,NW,315,1.1,0.0,81,0.00,CLR,,0.00,WeatherDisplay:10.37,2013-01-05 01:58:00,
2013-01-04 21:03:00,29.5,24.7,30.39,West,270,0.0,0.0,82,0.00,CLR,,0.00,WeatherDisplay:10.37,2013-01-05 02:03:00,
2013-01-04 21:08:00,29.3,24.5,30.39,West,270,0.0,0.0,82,0.00,CLR,,0.00,WeatherDisplay:10.37,2013-01-05 02:08:00,
2013-01-04 21:13:00,29.3,24.5,30.39,East,90,0.0,0.0,82,0.00,CLR,,0.00,WeatherDisplay:10.37,2013-01-05 02:13:00,
2013-01-04 21:18:00,29.1,24.6,30.39,NW,315,1.1,0.0,83,0.00,CLR,,0.00,WeatherDisplay:10.37,2013-01-05 02:18:00,
2013-01-04 21:23:00,28.9,24.4,30.39,SW,225,0.0,0.0,83,0.00,CLR,,0.00,WeatherDisplay:10.37,2013-01-05 02:23:00,
2013-01-04 21:28:00,28.8,24.2,30.39,NW,315,2.3,2.3,83,0.00,CLR,,0.00,WeatherDisplay:10.37,2013-01-05 02:28:00,
2013-01-04 21:33:00,28.6,24.6,30.38,North,0,2.3,2.3,85,0.00,CLR,,0.00,WeatherDisplay:10.37,2013-01-05 02:33:00,
2013-01-04 21:38:00,28.4,24.5,30.38,SW,225,1.1,0.0,85,0.00,CLR,,0.00,WeatherDisplay:10.37,2013-01-05 02:38:00,
2013-01-04 21:43:00,28.4,24.5,30.38,NW,315,0.0,0.0,85,0.00,CLR,,0.00,WeatherDisplay:10.37,2013-01-05 02:43:00,
2013-01-04 21:48:00,28.4,24.5,30.38,North,0,1.1,0.0,85,0.00,CLR,,0.00,WeatherDisplay:10.37,2013-01-05 02:48:00,
2013-01-04 21:53:00,28.2,23.4,30.39,SW,225,2.3,2.3,82,0.00,CLR,,0.00,WeatherDisplay:10.37,2013-01-05 02:53:00,
2013-01-04 21:58:00,28.4,24.7,30.39,WSW,248,2.3,2.3,86,0.00,CLR,,0.00,WeatherDisplay:10.37,2013-01-05 02:58:00,
2013-01-04 22:03:00,28.6,24.9,30.38,North,0,0.0,0.0,86,0.00,CLR,,0.00,WeatherDisplay:10.37,2013-01-05 03:03:00,
2013-01-04 22:08:00,28.4,24.7,30.38,West,270,0.0,0.0,86,0.00,CLR,,0.00,WeatherDisplay:10.37,2013-01-05 03:08:00,
2013-01-04 22:13:00,28.2,23.4,30.38,NW,315,0.0,0.0,82,0.00,CLR,,0.00,WeatherDisplay:10.37,2013-01-05 03:13:00,
2013-01-04 22:18:00,28.0,23.3,30.38,West,270,1.1,0.0,82,0.00,CLR,,0.00,WeatherDisplay:10.37,2013-01-05 03:18:00,
2013-01-04 22:23:00,28.0,23.3,30.38,West,270,0.0,0.0,82,0.00,CLR,,0.00,WeatherDisplay:10.37,2013-01-05 03:23:00,
2013-01-04 22:28:00,27.9,23.1,30.39,West,270,0.0,0.0,82,0.00,CLR,,0.00,WeatherDisplay:10.37,2013-01-05 03:28:00,
2013-01-04 22:33:00,27.9,23.1,30.38,West,270,0.0,0.0,82,0.00,CLR,,0.00,WeatherDisplay:10.37,2013-01-05 03:33:00,
2013-01-04 22:38:00,27.7,22.9,30.39,West,270,0.0,0.0,82,0.00,CLR,,0.00,WeatherDisplay:10.37,2013-01-05 03:38:00,
2013-01-04 22:43:00,27.5,22.7,30.39,West,270,0.0,0.0,82,0.00,CLR,,0.00,WeatherDisplay:10.37,2013-01-05 03:43:00,
2013-01-04 22:48:00,27.3,22.5,30.38,West,270,0.0,0.0,82,0.00,CLR,,0.00,WeatherDisplay:10.37,2013-01-05 03:48:00,
2013-01-04 22:53:00,27.1,22.4,30.38,West,270,0.0,0.0,82,0.00,CLR,,0.00,WeatherDisplay:10.37,2013-01-05 03:53:00,
2013-01-04 22:58:00,27.0,22.5,30.38,West,270,0.0,0.0,83,0.00,CLR,,0.00,WeatherDisplay:10.37,2013-01-05 03:58:00,
2013-01-04 23:03:00,27.0,22.5,30.38,North,0,0.0,0.0,83,0.00,CLR,,0.00,WeatherDisplay:10.37,2013-01-05 04:03:00,
2013-01-04 23:08:00,26.8,22.3,30.38,NW,315,0.0,0.0,83,0.00,CLR,,0.00,WeatherDisplay:10.37,2013-01-05 04:08:00,
2013-01-04 23:13:00,26.8,22.3,30.38,NW,315,0.0,0.0,83,0.00,CLR,,0.00,WeatherDisplay:10.37,2013-01-05 04:13:00,
2013-01-04 23:18:00,26.8,22.3,30.38,NW,315,0.0,0.0,83,0.00,CLR,,0.00,WeatherDisplay:10.37,2013-01-05 04:18:00,
2013-01-04 23:23:00,26.6,22.4,30.38,West,270,1.1,0.0,84,0.00,CLR,,0.00,WeatherDisplay:10.37,2013-01-05 04:23:00,
2013-01-04 23:28:00,26.6,22.4,30.38,North,0,0.0,0.0,84,0.00,CLR,,0.00,WeatherDisplay:10.37,2013-01-05 04:28:00,
2013-01-04 23:33:00,26.6,22.4,30.38,SW,225,0.0,0.0,84,0.00,CLR,,0.00,WeatherDisplay:10.37,2013-01-05 04:33:00,
2013-01-04 23:38:00,26.6,22.4,30.38,NW,315,0.0,0.0,84,0.00,CLR,,0.00,WeatherDisplay:10.37,2013-01-05 04:38:00,
2013-01-04 23:43:00,26.4,22.5,30.38,NW,315,0.0,0.0,85,0.00,CLR,,0.00,WeatherDisplay:10.37,2013-01-05 04:43:00,
2013-01-04 23:48:00,26.4,22.5,30.38,West,270,0.0,0.0,85,0.00,CLR,,0.00,WeatherDisplay:10.37,2013-01-05 04:48:00,
2013-01-04 23:53:00,26.4,22.5,30.39,North,0,0.0,0.0,85,0.00,CLR,,0.00,WeatherDisplay:10.37,2013-01-05 04:53:00,
2013-01-04 23:58:00,26.2,22.3,30.38,North,0,0.0,0.0,85,0.00,CLR,,0.00,WeatherDisplay:10.37,2013-01-05 04:58:00,